New Century 1 — H9LA — position and weather

sailwx.info

Track history (hours):
 
Tides and Currents Weather Stations Pressure Air Temp Water Temp Dewpoint Dewpoint Depression Visibility Wind Speed Wind Dir Waves Ship Positions

New Century 1

Last reported at 2015-Jan-13 04:33 UTC. Time now 2015-Jan-29 22:29 UTC.
Position N 39°30' W 072°56'.
Warning: this ship's position is 16 days out of date.

Length 200 m; beam 32.3 m.

Type: Cargo ship. MMSI: 355234000.

Date/timePositionNaut miles runAvg speedWind from/ knotsBaromVisibWave heightAir tempDewpointWater temp
2015-Jan-13 04:33N 39°30' W 072°56'2118.0
2015-Jan-13 03:22N 39°47' W 073°11'1517.7
2015-Jan-13 02:32N 39°59' W 073°22'1717.3
2015-Jan-13 01:33N 40°13' W 073°35'1010.0
2015-Jan-13 00:32N 40°21' W 073°43'9 8.9
2015-Jan-12 23:33N 40°28' W 073°51'1110.9
2015-Jan-12 22:33N 40°34' W 074°02'7 7.0
2015-Jan-12 21:33N 40°39' W 074°09'2 2.1
2015-Jan-12 20:31N 40°41' W 074°08'0 0.0
2015-Jan-12 19:25N 40°41' W 074°08'0 0.0
2015-Jan-12 18:25N 40°41' W 074°08'0 0.0
2015-Jan-12 17:31N 40°41' W 074°08'0 0.0
2015-Jan-12 16:31N 40°41' W 074°08'0 0.0
2015-Jan-12 15:31N 40°41' W 074°08'0 0.0
2015-Jan-12 14:19N 40°41' W 074°08'0 0.0
2015-Jan-12 13:31N 40°41' W 074°08'0 0.0
2015-Jan-12 12:25N 40°41' W 074°08'0 0.0
2015-Jan-12 10:31N 40°41' W 074°08'0 0.0
2015-Jan-12 09:31N 40°41' W 074°08'0 0.0
2015-Jan-12 08:31N 40°41' W 074°08'0 0.0
2015-Jan-12 07:31N 40°41' W 074°08'0 0.0
2015-Jan-12 06:31N 40°41' W 074°08'0 0.0
2015-Jan-12 05:31N 40°41' W 074°08'0 0.0
2015-Jan-12 04:31N 40°41' W 074°08'0 0.0
2015-Jan-12 03:31N 40°41' W 074°08'0 0.0
2015-Jan-12 02:31N 40°41' W 074°08'0 0.0
2015-Jan-12 01:07N 40°41' W 074°08'1 2.4
2015-Jan-12 00:33N 40°40' W 074°08'6 5.8
2015-Jan-11 23:33N 40°36' W 074°03'1010.0
2015-Jan-11 22:33N 40°29' W 073°54'8 7.7
2015-Jan-11 21:33N 40°23' W 073°47'5 5.2
2015-Jan-11 20:29N 40°18' W 073°46'6 6.6
2015-Jan-11 19:33N 40°12' W 073°46'7 6.7
2015-Jan-11 18:33N 40°05' W 073°43'1111.0
2015-Jan-11 17:33N 39°54' W 073°41'1717.2
2015-Jan-11 16:33N 39°37' W 073°43'1817.5
2015-Jan-11 15:32N 39°20' W 073°46'1817.2
2015-Jan-11 14:31N 39°02' W 073°48'1717.3
2015-Jan-11 13:31N 38°45' W 073°50'  
Track history (hours):
 
Tides and Currents Weather Stations Pressure Air Temp Water Temp Dewpoint Dewpoint Depression Visibility Wind Speed Wind Dir Waves Ship Positions

New Century 1

Last reported at 2015-Jan-13 04:33 UTC. Time now 2015-Jan-29 22:29 UTC.
Position N 39°30' W 072°56'.
Warning: this ship's position is 16 days out of date.

Length 200 m; beam 32.3 m.

Type: Cargo ship. MMSI: 355234000.

Date/timePositionNaut miles runAvg speedWind from/ knotsBaromVisibWave heightAir tempDewpointWater temp
2015-Jan-13 04:33N 39°30' W 072°56'2118.0
2015-Jan-13 03:22N 39°47' W 073°11'1517.7
2015-Jan-13 02:32N 39°59' W 073°22'1717.3
2015-Jan-13 01:33N 40°13' W 073°35'1010.0
2015-Jan-13 00:32N 40°21' W 073°43'9 8.9
2015-Jan-12 23:33N 40°28' W 073°51'1110.9
2015-Jan-12 22:33N 40°34' W 074°02'7 7.0
2015-Jan-12 21:33N 40°39' W 074°09'2 2.1
2015-Jan-12 20:31N 40°41' W 074°08'0 0.0
2015-Jan-12 19:25N 40°41' W 074°08'0 0.0
2015-Jan-12 18:25N 40°41' W 074°08'0 0.0
2015-Jan-12 17:31N 40°41' W 074°08'0 0.0
2015-Jan-12 16:31N 40°41' W 074°08'0 0.0
2015-Jan-12 15:31N 40°41' W 074°08'0 0.0
2015-Jan-12 14:19N 40°41' W 074°08'0 0.0
2015-Jan-12 13:31N 40°41' W 074°08'0 0.0
2015-Jan-12 12:25N 40°41' W 074°08'0 0.0
2015-Jan-12 10:31N 40°41' W 074°08'0 0.0
2015-Jan-12 09:31N 40°41' W 074°08'0 0.0
2015-Jan-12 08:31N 40°41' W 074°08'0 0.0
2015-Jan-12 07:31N 40°41' W 074°08'0 0.0
2015-Jan-12 06:31N 40°41' W 074°08'0 0.0
2015-Jan-12 05:31N 40°41' W 074°08'0 0.0
2015-Jan-12 04:31N 40°41' W 074°08'0 0.0
2015-Jan-12 03:31N 40°41' W 074°08'0 0.0
2015-Jan-12 02:31N 40°41' W 074°08'0 0.0
2015-Jan-12 01:07N 40°41' W 074°08'1 2.4
2015-Jan-12 00:33N 40°40' W 074°08'6 5.8
2015-Jan-11 23:33N 40°36' W 074°03'1010.0
2015-Jan-11 22:33N 40°29' W 073°54'8 7.7
2015-Jan-11 21:33N 40°23' W 073°47'5 5.2
2015-Jan-11 20:29N 40°18' W 073°46'6 6.6
2015-Jan-11 19:33N 40°12' W 073°46'7 6.7
2015-Jan-11 18:33N 40°05' W 073°43'1111.0
2015-Jan-11 17:33N 39°54' W 073°41'1717.2
2015-Jan-11 16:33N 39°37' W 073°43'1817.5
2015-Jan-11 15:32N 39°20' W 073°46'1817.2
2015-Jan-11 14:31N 39°02' W 073°48'1717.3
2015-Jan-11 13:31N 38°45' W 073°50'  

Dump ship's entire track history